Time;durP1;ratioP1;P1;durP2;ratioP2;P2;SDS_P1;SDS_P2;PMS_P1;PMS_P2;Temp;Humidity;BMP_temperature;BMP_pressure;BME280_temperature;BME280_humidity;BME280_pressure;Samples;Min_cycle;Max_cycle;Signal;HPM_P1;HPM_P2
2023/08/13 00:02:19;;;;;;;3.43;2.07;;;;;;;19.75;100.00;100288.63;5008197;28;20262;-66
2023/08/13 00:04:45;;;;;;;3.77;1.87;;;;;;;19.76;100.00;100289.44;5018316;28;20645;-67
2023/08/13 00:07:11;;;;;;;2.10;1.90;;;;;;;19.73;100.00;100290.53;5027226;28;20248;-66
2023/08/13 00:09:36;;;;;;;3.67;1.80;;;;;;;19.70;100.00;100287.38;5032309;28;20190;-67
2023/08/13 00:12:02;;;;;;;3.03;2.20;;;;;;;19.70;100.00;100303.88;5037216;28;20245;-67
2023/08/13 00:14:27;;;;;;;3.23;2.30;;;;;;;19.64;100.00;100297.41;5020481;28;20182;-67
2023/08/13 00:16:52;;;;;;;2.40;1.80;;;;;;;19.58;100.00;100297.97;5030455;28;20214;-67
2023/08/13 00:19:18;;;;;;;2.77;1.90;;;;;;;19.56;100.00;100291.22;5032158;28;20206;-66
2023/08/13 00:21:43;;;;;;;2.27;1.83;;;;;;;19.53;100.00;100284.50;5016736;28;20273;-67
2023/08/13 00:24:09;;;;;;;3.57;1.93;;;;;;;19.52;100.00;100288.91;5033857;28;20190;-67
2023/08/13 00:26:36;;;;;;;2.33;1.77;;;;;;;19.45;100.00;100293.03;5031722;28;20236;-66
2023/08/13 00:29:02;;;;;;;2.50;2.20;;;;;;;19.41;100.00;100294.28;5032165;28;20249;-67
2023/08/13 00:31:28;;;;;;;4.53;1.87;;;;;;;19.29;100.00;100284.94;5031826;28;20225;-67
2023/08/13 00:33:53;;;;;;;4.63;2.43;;;;;;;19.16;100.00;100285.16;5036090;28;20178;-67
2023/08/13 00:36:18;;;;;;;2.17;1.97;;;;;;;19.17;100.00;100289.44;5031205;28;20539;-66
2023/08/13 00:38:43;;;;;;;2.43;2.07;;;;;;;19.16;100.00;100301.66;5031763;28;20190;-66
2023/08/13 00:41:09;;;;;;;4.53;2.50;;;;;;;19.20;100.00;100299.56;5029784;28;20310;-67
2023/08/13 00:43:36;;;;;;;5.03;2.30;;;;;;;19.13;100.00;100295.88;5038634;28;20248;-67
2023/08/13 00:46:03;;;;;;;2.77;2.00;;;;;;;19.08;100.00;100303.28;5031165;28;20213;-67
2023/08/13 00:48:28;;;;;;;2.50;1.97;;;;;;;18.93;100.00;100308.03;5031922;28;20186;-66
2023/08/13 00:50:54;;;;;;;3.80;2.20;;;;;;;18.87;100.00;100304.97;5027195;28;20303;-66
2023/08/13 00:53:20;;;;;;;3.60;2.37;;;;;;;18.84;100.00;100297.44;5040438;28;20256;-66
2023/08/13 00:55:45;;;;;;;4.00;1.77;;;;;;;18.80;100.00;100297.81;5030707;28;20182;-67
2023/08/13 00:58:10;;;;;;;3.33;2.30;;;;;;;18.71;100.00;100294.22;5031830;28;20182;-67
2023/08/13 01:00:36;;;;;;;3.10;1.93;;;;;;;18.68;100.00;100302.28;5024902;28;20320;-66
2023/08/13 01:03:01;;;;;;;4.30;2.20;;;;;;;18.62;100.00;100297.59;5042327;28;20597;-67
2023/08/13 01:05:41;;;;;;;4.53;2.17;;;;;;;18.43;100.00;100308.78;5030970;28;20186;-67
2023/08/13 01:08:32;;;;;;;4.13;2.37;;;;;;;18.33;100.00;100309.56;5031536;28;20200;-66
2023/08/13 01:11:20;;;;;;;3.87;2.20;;;;;;;18.31;100.00;100310.66;5014560;28;20612;-67
2023/08/13 01:13:59;;;;;;;1.90;1.80;;;;;;;18.34;100.00;100311.19;5035786;28;20175;-66
2023/08/13 01:16:26;;;;;;;2.47;2.13;;;;;;;18.34;100.00;100313.78;5031137;28;20190;-67
2023/08/13 01:18:51;;;;;;;3.93;2.40;;;;;;;18.29;100.00;100315.97;5031321;28;20565;-67
2023/08/13 01:21:17;;;;;;;6.13;2.10;;;;;;;18.26;100.00;100311.03;5030610;28;20221;-67
2023/08/13 01:23:42;;;;;;;4.33;2.20;;;;;;;18.13;100.00;100313.00;5029054;28;20597;-67
2023/08/13 01:26:17;;;;;;;3.40;2.63;;;;;;;18.05;100.00;100316.25;5030871;28;20185;-67
2023/08/13 01:29:09;;;;;;;4.73;2.43;;;;;;;18.04;100.00;100306.78;5031348;28;20563;-67
2023/08/13 01:31:37;;;;;;;2.37;2.20;;;;;;;17.93;100.00;100305.03;5022873;28;20225;-67
2023/08/13 01:34:04;;;;;;;6.10;2.50;;;;;;;17.92;100.00;100303.38;5034003;28;20185;-67
2023/08/13 01:36:31;;;;;;;3.10;2.17;;;;;;;17.84;100.00;100308.41;5031056;28;20197;-67
2023/08/13 01:38:58;;;;;;;5.20;2.60;;;;;;;17.89;100.00;100299.25;5031155;28;20212;-66
2023/08/13 01:41:34;;;;;;;3.80;2.60;;;;;;;17.83;100.00;100293.72;5030738;28;20233;-66
2023/08/13 01:43:59;;;;;;;3.00;2.47;;;;;;;17.80;100.00;100297.41;5034526;28;20185;-66
2023/08/13 01:46:24;;;;;;;4.67;2.53;;;;;;;17.81;100.00;100293.00;5030815;28;20542;-67
2023/08/13 01:48:50;;;;;;;2.57;2.30;;;;;;;17.78;100.00;100303.69;5029837;28;20252;-67
2023/08/13 01:51:15;;;;;;;3.97;2.80;;;;;;;17.85;100.00;100300.44;5011111;28;20221;-65
2023/08/13 01:53:40;;;;;;;3.20;2.90;;;;;;;17.72;100.00;100300.66;5035761;28;20182;-66
2023/08/13 01:56:05;;;;;;;5.50;2.97;;;;;;;17.79;100.00;100298.34;5028918;28;20193;-66
2023/08/13 01:58:31;;;;;;;2.83;2.57;;;;;;;17.81;100.00;100298.22;5031218;28;20685;-67
2023/08/13 02:00:56;;;;;;;2.97;2.47;;;;;;;17.83;100.00;100310.16;5021891;28;20233;-67
2023/08/13 02:03:21;;;;;;;5.67;2.73;;;;;;;17.89;100.00;100304.44;5033918;28;20190;-67
2023/08/13 02:05:46;;;;;;;3.27;2.80;;;;;;;17.94;100.00;100306.72;5025362;28;20182;-67
2023/08/13 02:08:12;;;;;;;2.90;2.57;;;;;;;18.03;100.00;100310.31;5029693;28;20255;-66
2023/08/13 02:10:37;;;;;;;3.83;2.63;;;;;;;18.10;100.00;100301.06;5028843;28;20231;-66
2023/08/13 02:13:03;;;;;;;3.10;2.50;;;;;;;18.18;100.00;100306.47;5038636;28;20221;-66
2023/08/13 02:15:28;;;;;;;6.40;3.03;;;;;;;18.12;100.00;100304.38;5034321;28;20178;-66
2023/08/13 02:17:53;;;;;;;2.70;2.50;;;;;;;18.05;100.00;100293.63;5034064;28;20222;-66
2023/08/13 02:20:19;;;;;;;2.83;2.47;;;;;;;18.10;100.00;100305.41;5026281;28;20209;-67
2023/08/13 02:22:44;;;;;;;2.30;2.10;;;;;;;18.05;100.00;100308.44;5046938;28;20182;-67
2023/08/13 02:25:09;;;;;;;2.60;2.40;;;;;;;18.05;100.00;100305.81;5033563;28;20174;-67
2023/08/13 02:27:34;;;;;;;3.03;2.70;;;;;;;18.10;100.00;100303.66;5034016;28;20201;-67
2023/08/13 02:30:00;;;;;;;3.73;2.57;;;;;;;18.10;100.00;100303.66;5032900;28;20194;-67
2023/08/13 02:32:25;;;;;;;3.07;2.87;;;;;;;18.11;100.00;100305.31;5037689;28;20249;-67
2023/08/13 02:34:50;;;;;;;5.23;2.77;;;;;;;18.11;100.00;100302.72;5033666;28;20228;-67
2023/08/13 02:37:16;;;;;;;5.20;2.73;;;;;;;18.15;100.00;100304.09;5032586;28;20224;-67
2023/08/13 02:39:41;;;;;;;4.57;2.77;;;;;;;18.13;100.00;100302.56;5033745;28;20194;-67
2023/08/13 02:42:06;;;;;;;5.07;2.63;;;;;;;18.09;100.00;100307.22;5037689;28;20617;-67
2023/08/13 02:44:31;;;;;;;5.43;2.80;;;;;;;18.08;100.00;100299.53;5033522;28;20370;-67
2023/08/13 02:46:57;;;;;;;3.70;2.87;;;;;;;17.98;100.00;100305.50;5033937;28;20178;-67
2023/08/13 02:49:22;;;;;;;3.23;2.90;;;;;;;18.02;100.00;100300.88;5033880;28;20263;-66
2023/08/13 02:51:48;;;;;;;4.60;3.17;;;;;;;18.00;100.00;100308.81;5035444;28;20232;-67
2023/08/13 02:54:13;;;;;;;3.53;2.83;;;;;;;18.01;100.00;100307.84;5029773;28;20725;-67
2023/08/13 02:56:41;;;;;;;3.37;3.07;;;;;;;18.03;100.00;100305.13;5033591;28;20629;-67
2023/08/13 02:59:06;;;;;;;4.10;3.10;;;;;;;18.01;100.00;100305.25;5033409;28;20208;-68
2023/08/13 03:01:31;;;;;;;3.57;2.80;;;;;;;17.95;100.00;100304.91;5034881;28;20532;-66
2023/08/13 03:04:00;;;;;;;4.17;3.10;;;;;;;17.93;100.00;100307.63;5031905;28;20186;-67
2023/08/13 03:06:25;;;;;;;5.63;3.13;;;;;;;17.94;100.00;100313.66;5033143;28;20210;-67
2023/08/13 03:08:50;;;;;;;3.90;2.67;;;;;;;17.94;100.00;100301.50;5019675;28;20260;-67
2023/08/13 03:11:16;;;;;;;3.23;2.73;;;;;;;17.93;100.00;100307.63;5032637;28;20236;-67
2023/08/13 03:13:41;;;;;;;2.93;2.60;;;;;;;17.89;100.00;100309.66;5039116;28;20189;-66
2023/08/13 03:16:07;;;;;;;3.57;3.23;;;;;;;17.88;100.00;100305.38;5033300;28;20193;-67
2023/08/13 03:18:32;;;;;;;3.30;3.00;;;;;;;17.66;100.00;100303.75;5032853;28;20228;-67
2023/08/13 03:20:57;;;;;;;3.93;3.37;;;;;;;17.66;100.00;100313.31;5024889;28;20713;-66
2023/08/13 03:23:24;;;;;;;4.63;3.57;;;;;;;17.66;100.00;100300.31;5033891;28;20202;-67
2023/08/13 03:25:49;;;;;;;3.67;3.37;;;;;;;17.71;100.00;100306.78;5032701;28;20178;-68
2023/08/13 03:28:14;;;;;;;5.23;3.73;;;;;;;17.64;100.00;100313.44;5033089;28;20182;-67
2023/08/13 03:30:39;;;;;;;3.60;3.30;;;;;;;17.73;100.00;100309.25;5012434;28;20233;-67
2023/08/13 03:33:05;;;;;;;4.70;3.50;;;;;;;17.80;100.00;100304.38;5055119;28;20272;-67
2023/08/13 03:35:34;;;;;;;4.37;3.17;;;;;;;17.80;100.00;100302.63;5032983;28;20178;-67
2023/08/13 03:38:00;;;;;;;6.03;3.70;;;;;;;17.82;100.00;100297.28;5032671;28;20170;-67
2023/08/13 03:40:25;;;;;;;5.33;3.50;;;;;;;17.85;100.00;100297.84;5025406;28;20668;-67
2023/08/13 03:42:50;;;;;;;4.93;3.80;;;;;;;17.89;100.00;100298.44;5044799;28;20205;-67
2023/08/13 03:45:15;;;;;;;5.17;4.17;;;;;;;17.79;100.00;100300.94;5032494;28;20224;-67
2023/08/13 03:47:41;;;;;;;7.77;4.00;;;;;;;17.94;100.00;100298.06;5032261;28;20297;-67
2023/08/13 03:50:06;;;;;;;6.13;3.60;;;;;;;18.02;100.00;100290.44;5023051;28;20185;-67
2023/08/13 03:52:31;;;;;;;4.90;3.20;;;;;;;18.08;100.00;100304.75;5046797;28;20612;-67
2023/08/13 03:54:57;;;;;;;5.37;3.63;;;;;;;18.15;100.00;100311.09;5032042;28;20201;-67
2023/08/13 03:57:22;;;;;;;5.07;3.30;;;;;;;18.19;100.00;100304.66;5032624;28;20210;-67
2023/08/13 03:59:47;;;;;;;4.17;3.77;;;;;;;18.22;100.00;100301.78;5032414;28;20252;-67
2023/08/13 04:02:12;;;;;;;6.73;3.90;;;;;;;18.25;100.00;100296.34;5022884;28;20571;-67
2023/08/13 04:04:38;;;;;;;4.10;3.70;;;;;;;18.25;100.00;100308.56;5032057;28;20175;-67
2023/08/13 04:07:03;;;;;;;5.50;4.10;;;;;;;18.20;100.00;100307.13;5032176;28;20174;-67
2023/08/13 04:09:28;;;;;;;5.53;3.83;;;;;;;18.19;100.00;100307.28;5032502;28;20224;-67
2023/08/13 04:11:53;;;;;;;4.87;4.13;;;;;;;18.11;100.00;100310.53;5021292;28;20313;-67
2023/08/13 04:14:19;;;;;;;4.50;3.67;;;;;;;18.08;100.00;100307.34;5031624;28;20237;-67
2023/08/13 04:16:44;;;;;;;6.73;4.07;;;;;;;17.96;100.00;100306.56;5032032;28;20190;-65
2023/08/13 04:19:09;;;;;;;6.43;3.83;;;;;;;17.99;100.00;100308.94;5032102;28;20236;-67
2023/08/13 04:21:35;;;;;;;5.60;3.17;;;;;;;18.08;100.00;100310.75;5033511;28;20231;-67
2023/08/13 04:24:00;;;;;;;4.20;3.50;;;;;;;18.02;100.00;100309.50;5034580;28;20177;-66
2023/08/13 04:26:25;;;;;;;4.07;3.50;;;;;;;18.11;100.00;100318.34;5030420;28;20248;-67
2023/08/13 04:28:51;;;;;;;4.50;3.67;;;;;;;18.20;100.00;100314.13;5030781;28;20186;-67
2023/08/13 04:31:17;;;;;;;7.23;3.70;;;;;;;18.21;100.00;100311.41;5030886;28;20221;-66
2023/08/13 04:33:42;;;;;;;4.47;4.07;;;;;;;18.27;100.00;100311.84;5037597;28;20186;-67
2023/08/13 04:36:07;;;;;;;6.83;3.43;;;;;;;18.30;100.00;100307.19;5031253;28;20542;-67
2023/08/13 04:38:33;;;;;;;5.00;4.07;;;;;;;18.35;100.00;100312.03;5031791;28;20561;-67
2023/08/13 04:40:58;;;;;;;3.83;3.47;;;;;;;18.34;100.00;100307.78;5028208;28;20237;-67
2023/08/13 04:43:23;;;;;;;4.60;4.20;;;;;;;18.33;100.00;100304.34;5040344;28;20197;-67
2023/08/13 04:45:49;;;;;;;5.33;3.60;;;;;;;18.35;100.00;100307.63;5031125;28;20212;-67
2023/08/13 04:48:38;;;;;;;4.13;3.73;;;;;;;18.30;100.00;100302.00;5031584;28;20174;-67
2023/08/13 04:51:03;;;;;;;4.60;3.80;;;;;;;18.40;100.00;100307.25;5028782;28;20288;-64
2023/08/13 04:53:28;;;;;;;4.57;4.00;;;;;;;18.51;100.00;100306.34;5039396;28;20182;-64
2023/08/13 04:55:53;;;;;;;5.73;3.60;;;;;;;18.55;100.00;100305.94;5030632;28;20201;-64
2023/08/13 04:58:19;;;;;;;4.93;3.10;;;;;;;18.56;100.00;100306.78;5031670;28;20221;-65
2023/08/13 05:00:44;;;;;;;5.87;3.53;;;;;;;18.50;100.00;100299.50;5025681;28;20708;-64
2023/08/13 05:03:09;;;;;;;4.93;3.10;;;;;;;18.52;100.00;100313.22;5040860;28;20240;-65
2023/08/13 05:05:34;;;;;;;6.00;3.40;;;;;;;18.62;100.00;100305.41;5030941;28;20673;-65
2023/08/13 05:08:00;;;;;;;7.40;3.60;;;;;;;18.69;100.00;100317.81;5031024;28;20194;-64
2023/08/13 05:10:25;;;;;;;5.53;3.30;;;;;;;18.74;100.00;100319.19;5021324;28;20279;-64
2023/08/13 05:12:50;;;;;;;5.40;3.43;;;;;;;18.79;100.00;100312.63;5030755;28;20180;-63
2023/08/13 05:15:15;;;;;;;3.33;3.03;;;;;;;18.84;100.00;100307.84;5030797;28;20185;-64
2023/08/13 05:17:41;;;;;;;3.67;3.30;;;;;;;18.85;100.00;100316.47;5031403;28;20226;-63
2023/08/13 05:20:06;;;;;;;7.50;3.80;;;;;;;18.97;100.00;100320.66;5021310;28;20284;-63
2023/08/13 05:22:32;;;;;;;5.80;3.93;;;;;;;19.07;100.00;100318.09;5046056;28;20533;-64
2023/08/13 05:24:57;;;;;;;10.03;7.37;;;;;;;19.06;100.00;100307.81;5030847;28;20186;-64
2023/08/13 05:27:22;;;;;;;6.43;5.10;;;;;;;19.16;100.00;100309.47;5031319;28;20182;-64
2023/08/13 05:29:47;;;;;;;6.23;3.73;;;;;;;19.16;100.00;100316.47;5030895;28;20654;-64
2023/08/13 05:32:13;;;;;;;8.27;4.13;;;;;;;19.25;100.00;100309.59;5036212;28;20252;-63
2023/08/13 05:34:38;;;;;;;4.70;3.33;;;;;;;19.34;100.00;100306.19;5030510;28;20182;-64
2023/08/13 05:37:04;;;;;;;3.87;3.20;;;;;;;19.50;100.00;100316.09;5034337;28;20185;-64
2023/08/13 05:39:29;;;;;;;3.47;3.13;;;;;;;19.64;100.00;100315.69;5034991;28;20198;-64
2023/08/13 05:41:54;;;;;;;3.87;3.50;;;;;;;19.71;100.00;100309.91;5038448;28;20233;-64
2023/08/13 05:44:19;;;;;;;3.20;3.00;;;;;;;19.72;100.00;100307.19;5035586;28;20186;-64
2023/08/13 05:46:45;;;;;;;4.33;3.07;;;;;;;19.87;100.00;100312.00;5035366;28;20182;-64
2023/08/13 05:49:10;;;;;;;6.40;3.30;;;;;;;20.01;100.00;100314.19;5034807;28;20182;-64
2023/08/13 05:51:35;;;;;;;3.03;2.83;;;;;;;20.15;100.00;100320.75;5036466;28;20229;-64
2023/08/13 05:54:00;;;;;;;3.77;3.33;;;;;;;20.27;100.00;100324.84;5037557;28;20182;-63
2023/08/13 05:56:26;;;;;;;5.70;3.07;;;;;;;20.36;100.00;100317.94;5034802;28;20180;-65
2023/08/13 05:58:51;;;;;;;3.60;3.27;;;;;;;20.44;100.00;100315.44;5034545;28;20208;-65
2023/08/13 06:01:16;;;;;;;3.00;2.70;;;;;;;20.57;100.00;100328.19;5028511;28;20225;-65
2023/08/13 06:03:41;;;;;;;3.10;2.80;;;;;;;20.62;100.00;100320.72;5041160;28;20205;-65
2023/08/13 06:06:07;;;;;;;3.40;2.83;;;;;;;20.59;100.00;100326.25;5028768;28;20190;-65
2023/08/13 06:08:32;;;;;;;2.60;2.40;;;;;;;20.38;100.00;100326.47;5034546;28;20680;-65
2023/08/13 06:10:57;;;;;;;2.73;2.30;;;;;;;20.69;100.00;100331.44;5030537;28;20229;-65
2023/08/13 06:13:22;;;;;;;3.03;2.53;;;;;;;20.90;100.00;100322.56;5038246;28;20519;-65
2023/08/13 06:15:48;;;;;;;3.40;2.63;;;;;;;21.10;100.00;100320.69;5027890;28;20197;-66
2023/08/13 06:18:13;;;;;;;4.30;2.33;;;;;;;21.08;100.00;100314.78;5029727;28;20681;-64
2023/08/13 06:20:38;;;;;;;2.47;2.20;;;;;;;21.23;100.00;100315.09;5022378;28;20230;-65
2023/08/13 06:23:03;;;;;;;3.10;2.30;;;;;;;21.20;100.00;100316.22;5043897;28;20174;-65
2023/08/13 06:25:29;;;;;;;2.53;2.10;;;;;;;21.20;100.00;100320.59;5033873;28;20229;-65
2023/08/13 06:27:54;;;;;;;3.27;2.03;;;;;;;21.41;100.00;100313.31;5033740;28;20178;-64
2023/08/13 06:30:19;;;;;;;5.20;2.43;;;;;;;21.77;100.00;100312.50;5027189;28;20641;-64
2023/08/13 06:32:44;;;;;;;3.30;2.00;;;;;;;21.86;100.00;100310.78;5047236;28;20178;-64
2023/08/13 06:35:10;;;;;;;2.60;2.40;;;;;;;21.81;100.00;100316.47;5033434;28;20626;-65
2023/08/13 06:37:35;;;;;;;6.07;2.50;;;;;;;22.02;100.00;100313.50;5033894;28;20201;-66
2023/08/13 06:40:00;;;;;;;2.80;2.03;;;;;;;22.13;100.00;100322.06;5033735;28;20284;-65
2023/08/13 06:42:26;;;;;;;2.43;2.20;;;;;;;22.27;100.00;100313.66;5022358;28;20225;-65
2023/08/13 06:44:51;;;;;;;3.40;2.37;;;;;;;22.40;100.00;100327.19;5022865;28;20187;-65
2023/08/13 06:47:16;;;;;;;2.80;2.47;;;;;;;22.63;100.00;100316.16;5024806;28;20651;-66
2023/08/13 06:49:42;;;;;;;3.73;2.30;;;;;;;22.42;100.00;100323.59;5016317;28;20182;-65
2023/08/13 06:52:07;;;;;;;3.87;2.20;;;;;;;22.59;100.00;100314.84;5042285;28;20229;-67
2023/08/13 06:54:33;;;;;;;2.70;2.13;;;;;;;22.82;100.00;100316.88;5027797;28;20266;-67
2023/08/13 06:56:58;;;;;;;3.10;2.23;;;;;;;22.84;100.00;100312.31;5019215;28;20185;-66
2023/08/13 06:59:24;;;;;;;5.37;2.27;;;;;;;23.16;100.00;100319.47;5031928;28;20198;-66
2023/08/13 07:01:49;;;;;;;3.53;1.70;;;;;;;23.52;100.00;100316.56;5035905;28;20221;-67
2023/08/13 07:04:14;;;;;;;2.80;1.90;;;;;;;23.63;100.00;100317.22;5031408;28;20205;-67
2023/08/13 07:06:40;;;;;;;2.37;1.73;;;;;;;23.35;100.00;100322.78;5031430;28;20607;-67
2023/08/13 07:09:06;;;;;;;2.53;1.73;;;;;;;23.58;100.00;100322.16;5033204;28;20182;-67
2023/08/13 07:11:32;;;;;;;4.83;2.53;;;;;;;23.90;100.00;100326.56;5034395;28;20247;-67
2023/08/13 07:13:58;;;;;;;3.33;2.20;;;;;;;24.18;100.00;100327.06;5032772;28;20693;-67
2023/08/13 07:16:23;;;;;;;8.30;2.60;;;;;;;24.58;100.00;100323.66;5032939;28;20190;-67
2023/08/13 07:18:49;;;;;;;3.25;1.70;;;;;;;24.89;100.00;100323.72;5047559;28;20590;-67
2023/08/13 07:21:14;;;;;;;2.00;1.80;;;;;;;25.09;100.00;100320.66;5020048;28;20226;-68
2023/08/13 07:23:39;;;;;;;4.18;1.77;;;;;;;25.41;100.00;100322.28;5030007;28;20178;-67
2023/08/13 07:26:05;;;;;;;2.30;1.98;;;;;;;25.59;100.00;100316.72;5022013;28;20634;-67
2023/08/13 07:28:34;;;;;;;3.38;2.25;;;;;;;25.72;100.00;100321.38;5030696;28;20186;-67
2023/08/13 07:30:59;;;;;;;3.85;2.10;;;;;;;26.04;100.00;100322.09;5018015;28;20334;-68
2023/08/13 07:33:25;;;;;;;2.00;1.80;;;;;;;26.43;100.00;100312.31;5049479;28;20174;-67
2023/08/13 07:35:50;;;;;;;3.15;2.25;;;;;;;26.17;100.00;100328.59;5032171;28;20190;-67
2023/08/13 07:38:15;;;;;;;2.53;2.00;;;;;;;26.16;100.00;100322.50;5032654;28;20182;-67
2023/08/13 07:40:40;;;;;;;3.88;2.10;;;;;;;26.62;100.00;100329.41;5024640;28;20225;-68
2023/08/13 07:43:06;;;;;;;2.47;1.83;;;;;;;27.67;100.00;100329.94;5042288;28;20273;-67
2023/08/13 07:45:32;;;;;;;2.50;1.70;;;;;;;28.27;100.00;100334.03;5032395;28;20178;-67
2023/08/13 07:47:57;;;;;;;1.70;1.60;;;;;;;28.82;100.00;100340.22;5031031;28;20239;-68
2023/08/13 07:50:22;;;;;;;3.58;1.85;;;;;;;29.62;97.52;100338.75;5025083;28;20589;-67
2023/08/13 07:52:50;;;;;;;4.80;1.85;;;;;;;29.75;95.84;100336.09;5045077;28;20198;-68
2023/08/13 07:55:15;;;;;;;3.25;1.75;;;;;;;30.40;89.13;100335.44;5032282;28;20174;-68
2023/08/13 07:57:40;;;;;;;2.10;1.45;;;;;;;31.84;84.24;100331.53;5031797;28;20190;-68
2023/08/13 08:00:08;;;;;;;3.55;2.00;;;;;;;32.08;74.88;100334.38;5022288;28;20645;-68
2023/08/13 08:02:34;;;;;;;2.80;1.80;;;;;;;31.91;74.91;100328.81;5045955;28;20262;-67
2023/08/13 08:04:59;;;;;;;2.00;1.67;;;;;;;32.37;73.43;100334.69;5031923;28;20186;-68
2023/08/13 08:07:25;;;;;;;2.22;1.45;;;;;;;32.71;69.42;100323.63;5030571;28;20243;-68
2023/08/13 08:09:50;;;;;;;4.47;2.05;;;;;;;33.76;65.97;100322.28;5030938;28;20190;-67
2023/08/13 08:12:16;;;;;;;2.47;1.27;;;;;;;34.14;58.32;100324.69;5035879;28;20228;-68
2023/08/13 08:14:41;;;;;;;5.25;1.52;;;;;;;34.80;53.10;100335.09;5023248;28;20243;-68
2023/08/13 08:17:07;;;;;;;2.90;1.48;;;;;;;33.94;56.47;100328.56;5030506;28;20241;-68
2023/08/13 08:19:32;;;;;;;3.80;1.48;;;;;;;34.01;57.57;100334.56;5032037;28;20201;-68
2023/08/13 08:21:58;;;;;;;3.33;1.40;;;;;;;34.03;57.01;100331.69;5032234;28;20217;-67
2023/08/13 08:24:24;;;;;;;2.25;1.67;;;;;;;33.79;55.52;100329.81;5029566;28;20649;-67
2023/08/13 08:26:50;;;;;;;2.05;1.50;;;;;;;34.36;52.25;100336.41;5030670;28;20260;-68
2023/08/13 08:29:15;;;;;;;2.00;1.30;;;;;;;34.18;52.27;100334.69;5032127;28;20320;-67
2023/08/13 08:31:40;;;;;;;1.65;1.20;;;;;;;34.06;54.80;100329.38;5034187;28;20545;-66
2023/08/13 08:34:05;;;;;;;2.88;1.63;;;;;;;33.98;55.41;100323.59;5033940;28;20189;-66
2023/08/13 08:36:31;;;;;;;1.83;1.40;;;;;;;33.89;55.19;100331.09;5031899;28;20583;-66
2023/08/13 08:38:56;;;;;;;1.88;1.20;;;;;;;32.43;59.73;100333.81;5032102;28;20185;-66
2023/08/13 08:41:22;;;;;;;2.28;1.50;;;;;;;32.40;64.19;100322.78;5023239;28;20231;-66
2023/08/13 08:43:48;;;;;;;2.05;1.60;;;;;;;33.01;58.05;100321.00;5036566;28;20269;-66
2023/08/13 08:46:15;;;;;;;4.80;1.70;;;;;;;31.25;71.61;100322.16;5031217;28;20244;-66
2023/08/13 08:48:41;;;;;;;4.00;1.73;;;;;;;30.48;79.21;100320.28;5031453;28;20178;-66
2023/08/13 08:51:07;;;;;;;3.33;2.00;;;;;;;30.04;81.07;100314.69;5028900;28;20248;-66
2023/08/13 08:53:33;;;;;;;3.10;1.60;;;;;;;30.02;81.34;100309.59;5038688;28;20190;-66
2023/08/13 08:55:58;;;;;;;4.38;1.60;;;;;;;29.73;83.15;100308.19;5030783;28;20261;-67
2023/08/13 08:58:24;;;;;;;3.85;1.80;;;;;;;29.88;78.71;100313.25;5031705;28;20275;-67
2023/08/13 09:00:49;;;;;;;2.38;1.75;;;;;;;29.42;85.77;100305.16;5026796;28;20296;-65
2023/08/13 09:03:14;;;;;;;4.10;2.10;;;;;;;29.46;84.36;100303.72;5039589;28;20659;-66
2023/08/13 09:05:41;;;;;;;4.03;1.65;;;;;;;29.37;85.45;100304.91;5029585;28;20182;-66
2023/08/13 09:08:13;;;;;;;4.72;1.80;;;;;;;28.96;89.67;100304.03;5031593;28;20532;-66
2023/08/13 09:10:42;;;;;;;3.70;2.22;;;;;;;29.12;87.70;100299.38;5021062;28;20237;-66
2023/08/13 09:13:08;;;;;;;2.70;2.00;;;;;;;29.60;84.61;100298.41;5030401;28;20213;-66
2023/08/13 09:15:33;;;;;;;2.92;1.83;;;;;;;29.54;84.83;100296.59;5030663;28;20255;-65
2023/08/13 09:17:59;;;;;;;3.15;2.17;;;;;;;29.78;86.27;100303.06;5029545;28;20685;-66
2023/08/13 09:20:25;;;;;;;4.20;1.85;;;;;;;29.12;86.13;100299.38;5023993;28;20328;-66
2023/08/13 09:22:50;;;;;;;4.22;2.15;;;;;;;29.63;81.24;100306.78;5043255;28;20308;-66
2023/08/13 09:25:17;;;;;;;3.28;1.85;;;;;;;30.19;75.16;100303.84;5030713;28;20186;-66
2023/08/13 09:27:43;;;;;;;4.25;2.00;;;;;;;30.73;66.52;100296.53;5029723;28;20186;-66
2023/08/13 09:30:20;;;;;;;2.95;1.80;;;;;;;31.36;68.16;100294.91;5021565;28;20672;-66
2023/08/13 09:32:46;;;;;;;2.50;1.70;;;;;;;31.94;57.36;100292.97;5043959;28;20182;-67
2023/08/13 09:35:11;;;;;;;3.60;1.67;;;;;;;31.07;66.66;100289.19;5030764;28;20186;-67
2023/08/13 09:37:37;;;;;;;3.10;1.77;;;;;;;30.72;75.54;100289.56;5031046;28;20189;-67
2023/08/13 09:40:02;;;;;;;2.78;1.70;;;;;;;31.06;68.65;100277.72;5027103;28;20198;-67
2023/08/13 09:42:31;;;;;;;4.20;1.95;;;;;;;30.75;61.51;100284.66;5042231;28;20508;-67
2023/08/13 09:44:58;;;;;;;3.35;2.03;;;;;;;30.29;68.03;100275.06;5030766;28;20185;-67
2023/08/13 09:47:27;;;;;;;2.70;1.70;;;;;;;30.13;74.28;100278.97;5030881;28;20274;-67
2023/08/13 09:49:55;;;;;;;3.60;2.20;;;;;;;30.93;67.49;100282.31;5030947;28;20336;-66
2023/08/13 09:52:25;;;;;;;2.60;1.92;;;;;;;30.82;68.29;100281.16;5023988;28;20320;-66
2023/08/13 09:54:56;;;;;;;4.68;1.90;;;;;;;30.16;65.36;100275.09;5031010;28;20634;-66
2023/08/13 09:57:22;;;;;;;3.35;2.00;;;;;;;30.67;64.43;100276.94;5030568;28;20557;-66
2023/08/13 09:59:49;;;;;;;3.58;1.92;;;;;;;30.53;63.24;100273.53;5030797;28;20206;-67
2023/08/13 10:02:14;;;;;;;8.00;2.50;;;;;;;30.34;64.82;100271.75;5021827;28;20234;-67
2023/08/13 10:04:40;;;;;;;4.47;1.80;;;;;;;29.91;48.72;100271.28;5030323;28;20232;-65
2023/08/13 10:07:07;;;;;;;4.45;1.85;;;;;;;30.04;55.93;100277.56;5031174;28;20216;-66
2023/08/13 10:09:33;;;;;;;4.00;1.88;;;;;;;29.79;68.13;100278.19;5017246;28;20550;-66
2023/08/13 10:12:01;;;;;;;4.90;1.95;;;;;;;29.54;61.04;100278.84;5034890;28;20275;-66
2023/08/13 10:14:27;;;;;;;3.55;1.90;;;;;;;29.68;61.05;100278.81;5012809;28;20201;-67
2023/08/13 10:16:53;;;;;;;3.17;1.95;;;;;;;28.91;71.77;100277.31;5030789;28;20269;-67
2023/08/13 10:19:19;;;;;;;3.38;2.08;;;;;;;28.88;73.04;100272.44;5030525;28;20651;-67
2023/08/13 10:21:55;;;;;;;4.28;2.10;;;;;;;29.12;72.09;100270.22;5034295;28;20295;-67
2023/08/13 10:24:21;;;;;;;5.40;1.98;;;;;;;28.86;69.33;100271.00;5034750;28;20182;-66
2023/08/13 10:26:46;;;;;;;2.75;2.20;;;;;;;29.04;65.86;100271.25;5034343;28;20244;-67
2023/08/13 10:29:17;;;;;;;4.13;2.22;;;;;;;29.43;66.56;100274.97;5034220;28;20321;-67
2023/08/13 10:31:53;;;;;;;4.13;2.00;;;;;;;29.40;65.41;100264.78;5026231;28;20225;-67
2023/08/13 10:34:18;;;;;;;2.20;1.52;;;;;;;29.71;68.99;100267.81;5033362;28;20642;-67
2023/08/13 10:36:52;;;;;;;2.75;1.80;;;;;;;29.76;66.65;100271.47;5034212;28;20202;-67
2023/08/13 10:39:28;;;;;;;7.07;2.35;;;;;;;29.72;58.54;100272.09;5032243;28;20645;-67
2023/08/13 10:41:53;;;;;;;4.63;2.00;;;;;;;30.42;57.01;100266.22;5024169;28;20253;-67
2023/08/13 10:44:29;;;;;;;2.72;1.85;;;;;;;30.44;58.38;100272.13;5033126;28;20239;-67
2023/08/13 10:46:55;;;;;;;3.28;2.10;;;;;;;30.33;52.56;100268.28;5033994;28;20513;-66
2023/08/13 10:49:21;;;;;;;5.68;2.10;;;;;;;30.03;64.83;100270.63;5033644;28;20572;-67
2023/08/13 10:51:49;;;;;;;3.25;1.80;;;;;;;29.98;61.44;100275.75;5036429;28;20229;-67
2023/08/13 10:54:14;;;;;;;4.70;1.83;;;;;;;30.05;66.09;100271.25;5034838;28;20262;-66
2023/08/13 10:56:42;;;;;;;4.70;2.17;;;;;;;29.41;69.02;100269.06;5033652;28;20277;-67
2023/08/13 10:59:07;;;;;;;4.57;2.22;;;;;;;29.37;66.27;100269.66;5033526;28;20178;-67
2023/08/13 11:01:33;;;;;;;3.45;1.92;;;;;;;29.50;64.53;100271.50;5035195;28;20323;-66
2023/08/13 11:04:01;;;;;;;4.75;2.63;;;;;;;29.64;64.08;100273.13;5036507;28;20178;-67
2023/08/13 11:06:28;;;;;;;5.15;2.03;;;;;;;29.52;62.15;100270.28;5033369;28;20193;-67
2023/08/13 11:08:54;;;;;;;4.68;1.92;;;;;;;29.55;60.23;100274.38;5032084;28;20782;-67
2023/08/13 11:11:19;;;;;;;3.90;2.22;;;;;;;29.50;58.04;100266.19;5016564;28;20217;-67
2023/08/13 11:13:46;;;;;;;5.47;2.42;;;;;;;29.57;67.05;100264.34;5030553;28;20189;-67
2023/08/13 11:16:11;;;;;;;4.22;2.50;;;;;;;29.57;68.21;100273.13;5027886;28;20277;-66